San Francisco, CA

8:40 PM PDT on May 29, 2015 (GMT -0700)
SOMA - Near Van Ness | | Change Station
CLOSE
Current Station
Personal Weather Station
Location: San Francisco, CA
Elevation: 49 ft
Nearby Weather Stations

Elev 49 ft 37.77 °N, 122.42 °W | Updated 50 seconds ago

Partly Cloudy
Partly Cloudy
53.6 °F
Feels Like 53.6 °F
N
6.0
Wind Variable Wind from SW
Gusts 12.0 mph

Today
High -- | Low -- °F
--% Chance of Precip.
Yesterday
High -- | Low -- °F
Precip. -- in
5:50 AM 8:23 PM
Waxing Gibbous, 87% visible
Pressure 29.96 in
Visibility 10.0 miles
Clouds Scattered Clouds 600 ft
Mostly Cloudy 900 ft
Mostly Cloudy 20000 ft
Dew Point 51 °F
Humidity 90%
Rainfall 0.00 in
Snow Depth Not available.
UV 0 out of 12
Pollen 5.60 out of 12
Air Quality Not available.
Flu Activity Sporadic
METAR KSFO 300256Z 26015G21KT 10SM SCT006 BKN009 BKN200 13/09 A2996 RMK AO2 SLP144 T01280094 53001

More Conditions Fewer Conditions

Pressure 29.96 in
Visibility 10.0 miles
Clouds Scattered Clouds 600 ft
Mostly Cloudy 900 ft
Mostly Cloudy 20000 ft
Dew Point 51 °F
Humidity 90%
Rainfall 0.00 in
Snow Depth Not available.
UV 0 out of 12
Pollen 5.60 out of 12
Air Quality Not available.
Flu Activity Sporadic
METAR KSFO 300256Z 26015G21KT 10SM SCT006 BKN009 BKN200 13/09 A2996 RMK AO2 SLP144 T01280094 53001

More Conditions Fewer Conditions

10-Day Weather Forecast

Almanac

Astronomy

May. 29, 2015 Rise Set
Actual Time
Civil Twilight
Nautical Twilight
Astronomical Twilight
Moon
Length of Visible Light
Length of Day
Tomorrow will be .
, % of the Moon is Illuminated

Today's Extremes

State Highs State Lows

Community

WunderPhotos

Upload Photos

1,825,441 photos uploaded!

WunderBlogs® & News

Nearby

Air Quality

  Air Quality AQ Index Pollutant
Not available.

Snow Depth

Station Depth Elevation

Earthquake Activity

City Distance Mag. Time & Date
Minimum magnitude displayed is 2.5.

Coastal Water Temperatures

Place Temperature

Stations

Nearby Weather Stations

Station Location Temp. Windchill Dew Point Humidity Wind Precip. Elev Updated Type